Terminal Aerodrome Forecast
Issued by NWS

Home | Current Version | Previous Version | Text Only | Print | Product List | Glossary On
Versions: 1 2 3 4 5 6 7 8 9 10 11 12 13 14 15 16 17
000
FTUS43 KDLH 301137
TAFHIB
TAF
KHIB 301137Z 3012/3112 27008KT P6SM SCT070
     FM301400 28010G22KT P6SM SCT050
     FM302000 30014G25KT P6SM VCSH BKN060
     FM310200 29007KT P6SM SCT050=

USA.gov is the U.S. government's official web portal to all federal, state and local government web resources and services.